LiveATC.Net - Listen to live air traffic control over the Internet!


ICAO: KUUU  IATA: UUU   Airport: Newport State Airport
City: Newport   State/Province: Rhode Island
Country: United States   Continent: North America
KUUU METAR Weather: KUUU 221253Z AUTO 05007KT 10SM CLR 19/15 A3003 RMK AO2 SLP168 T01940150
KUUU Flight Activity (FlightAware)
KUUU Airport Info   (AirNav) (iFlightPlanner)
KUUU VFR Sectional Chart   (iFlightPlanner) 
KUUU IFR Low Chart   (iFlightPlanner) 

KUUU CTAF/Del
Feed Status: DOWN
Last heard on: 2018-06-22 13:11:03 (0 days 0 hours 15 minutes ago)
KUUU CTAF/Del Audio Archives
FacilityFrequency
Clearance Delivery (Providence Approach)127.250
Newport CTAF123.050

NOTICE

Unauthorized use prohibited. See LiveATC.net Terms of Service


Find LiveATC Audio Streams


Airport/ARTCC Code

Frequency Search
(e.g., 124.400, 128.75)
Site-wide search
 


Browse LiveATC Feeds
LiveATC Coverage Map
Top 50 LiveATC Feeds
Bad Weather Areas

LiveATC FAQ
Offer a LiveATC Feed
Contact LiveATC.net
Press Inquiries

LiveATC on iPhone
LiveATC on Android

Windows Phone
Windows 8/10

LiveATC Mobile
(Mobile browser)

ATC Audio Archives
Interesting Recordings

LiveATC Forums


Home Page
About LiveATC.net
Make a Donation
Terms of Use
Privacy Policy

Canadian Air Freqs

AIRMETs/SIGMETs

FAA Airport Status
Nat'l Airspace Status
Arrival Demand Charts


Server Software By:
Icecast.org
Liquidsoap